Time;durP1;ratioP1;P1;durP2;ratioP2;P2;SDS_P1;SDS_P2;PMS_P1;PMS_P2;Temp;Humidity;BMP_temperature;BMP_pressure;BME280_temperature;BME280_humidity;BME280_pressure;Samples;Min_cycle;Max_cycle;Signal;HPM_P1;HPM_P2
2021/04/20 00:00:28;;;;;;;21.20;13.50;;;6.30;99.90;;;;;;5050551;28;20467;-56
2021/04/20 00:02:54;;;;;;;24.38;14.10;;;6.30;99.90;;;;;;5050560;28;20029;-59
2021/04/20 00:05:20;;;;;;;22.02;13.55;;;6.30;99.90;;;;;;5050336;28;20107;-56
2021/04/20 00:07:47;;;;;;;24.80;14.10;;;6.40;99.90;;;;;;5050334;28;20025;-59
2021/04/20 00:10:18;;;;;;;19.58;12.80;;;6.50;99.90;;;;;;5049835;28;20080;-57
2021/04/20 00:12:45;;;;;;;21.85;12.50;;;6.60;99.90;;;;;;5050946;28;20028;-55
2021/04/20 00:15:19;;;;;;;21.52;12.48;;;6.60;99.90;;;;;;5050709;28;20037;-57
2021/04/20 00:17:45;;;;;;;21.95;12.70;;;6.70;99.90;;;;;;5050129;28;20467;-57
2021/04/20 00:20:12;;;;;;;20.98;12.88;;;6.80;99.90;;;;;;5050988;28;20063;-58
2021/04/20 00:22:38;;;;;;;20.52;12.75;;;6.80;99.90;;;;;;5050074;28;20107;-57
2021/04/20 00:25:04;;;;;;;20.42;13.25;;;6.90;99.90;;;;;;5050402;28;20530;-55
2021/04/20 00:27:30;;;;;;;21.88;14.10;;;6.90;99.90;;;;;;5049922;28;20147;-58
2021/04/20 00:29:56;;;;;;;19.23;12.50;;;7.00;99.90;;;;;;5050600;28;20479;-59
2021/04/20 00:32:21;;;;;;;22.10;12.80;;;6.90;99.90;;;;;;5049563;28;20112;-57
2021/04/20 00:34:47;;;;;;;21.95;13.05;;;6.90;99.90;;;;;;5050484;28;20471;-57
2021/04/20 00:37:13;;;;;;;23.63;13.40;;;6.80;99.90;;;;;;5050108;28;20045;-59
2021/04/20 00:39:39;;;;;;;23.02;13.80;;;6.80;99.90;;;;;;5049830;28;20066;-56
2021/04/20 00:42:06;;;;;;;25.27;14.50;;;6.80;99.90;;;;;;5050964;28;20048;-58
2021/04/20 00:44:32;;;;;;;21.27;13.63;;;6.80;99.90;;;;;;5049850;28;20033;-57
2021/04/20 00:47:01;;;;;;;21.83;13.43;;;6.90;99.90;;;;;;5050041;28;20104;-59
2021/04/20 00:49:28;;;;;;;23.20;14.82;;;6.90;99.90;;;;;;5050140;28;20071;-56
2021/04/20 00:51:55;;;;;;;22.15;14.18;;;6.80;99.90;;;;;;5050242;28;20021;-54
2021/04/20 00:54:22;;;;;;;28.00;13.57;;;6.80;99.90;;;;;;5050416;28;20155;-56
2021/04/20 00:56:47;;;;;;;22.70;13.40;;;6.80;99.90;;;;;;5049988;28;20037;-56
2021/04/20 00:59:14;;;;;;;26.30;13.77;;;6.80;99.90;;;;;;5049698;28;20029;-59
2021/04/20 01:01:41;;;;;;;22.35;13.73;;;6.70;99.90;;;;;;5051992;28;20497;-60
2021/04/20 01:04:14;;;;;;;42.53;14.55;;;6.70;99.90;;;;;;5053937;28;20044;-57
2021/04/20 01:06:42;;;;;;;23.40;13.60;;;6.70;99.90;;;;;;5054294;28;20823;-57
2021/04/20 01:09:08;;;;;;;24.75;13.27;;;6.70;99.90;;;;;;5051881;28;20033;-56
2021/04/20 01:11:36;;;;;;;19.90;12.57;;;6.60;99.90;;;;;;5050754;28;20021;-56
2021/04/20 01:14:04;;;;;;;20.70;13.07;;;6.50;99.90;;;;;;5053902;28;20048;-57
2021/04/20 01:16:30;;;;;;;25.50;13.68;;;6.40;99.90;;;;;;5053783;28;20043;-54
2021/04/20 01:18:56;;;;;;;29.23;14.13;;;6.40;99.90;;;;;;5053615;28;20422;-58
2021/04/20 01:21:23;;;;;;;28.42;14.48;;;6.40;99.90;;;;;;5053910;28;20083;-58
2021/04/20 01:24:09;;;;;;;26.88;14.10;;;6.50;99.90;;;;;;5052619;28;20079;-59
2021/04/20 01:26:44;;;;;;;22.15;14.35;;;6.40;99.90;;;;;;5040247;28;20449;-54
2021/04/20 01:29:11;;;;;;;25.55;14.15;;;6.40;99.90;;;;;;5053568;28;20746;-57
2021/04/20 01:31:39;;;;;;;27.55;14.43;;;6.30;99.90;;;;;;5053261;28;20033;-60
2021/04/20 01:34:06;;;;;;;24.70;14.80;;;6.20;99.90;;;;;;5053365;28;20048;-56
2021/04/20 01:36:31;;;;;;;25.25;15.57;;;6.10;99.90;;;;;;5053367;28;20035;-58
2021/04/20 01:38:58;;;;;;;25.65;14.95;;;6.00;99.90;;;;;;5053022;28;20100;-58
2021/04/20 01:41:26;;;;;;;25.90;14.85;;;6.00;99.90;;;;;;5053015;28;20033;-58
2021/04/20 01:43:53;;;;;;;24.25;15.27;;;6.00;99.90;;;;;;5053636;28;20090;-58
2021/04/20 01:46:20;;;;;;;30.35;16.08;;;6.00;99.90;;;;;;5048913;28;20047;-59
2021/04/20 01:48:47;;;;;;;22.05;14.55;;;6.00;99.90;;;;;;5053197;28;20029;-57
2021/04/20 01:51:18;;;;;;;22.98;15.05;;;5.90;99.90;;;;;;5052828;28;20116;-60
2021/04/20 01:53:46;;;;;;;23.75;14.45;;;5.90;99.90;;;;;;5045086;28;20024;-57
2021/04/20 01:56:12;;;;;;;26.00;14.68;;;5.80;99.90;;;;;;5051402;28;20044;-57
2021/04/20 01:58:40;;;;;;;25.42;15.13;;;5.70;99.90;;;;;;5052765;28;20058;-59
2021/04/20 02:01:21;;;;;;;22.52;14.75;;;5.70;99.90;;;;;;5053052;28;20796;-56
2021/04/20 02:03:49;;;;;;;28.55;16.40;;;5.70;99.90;;;;;;5045959;28;20118;-59
2021/04/20 02:06:16;;;;;;;26.55;15.38;;;5.50;99.90;;;;;;5053144;28;20043;-61
2021/04/20 02:08:43;;;;;;;23.92;15.43;;;5.40;99.90;;;;;;5051722;28;20483;-56
2021/04/20 02:11:11;;;;;;;40.97;17.58;;;5.40;99.90;;;;;;5052567;28;20021;-59
2021/04/20 02:13:37;;;;;;;27.90;16.08;;;5.30;99.90;;;;;;5052286;28;20033;-57
2021/04/20 02:16:04;;;;;;;26.00;15.80;;;5.20;99.90;;;;;;5052271;28;20059;-56
2021/04/20 02:18:33;;;;;;;26.45;16.63;;;5.20;99.90;;;;;;5052502;28;20039;-58
2021/04/20 02:21:00;;;;;;;30.52;17.38;;;5.20;99.90;;;;;;5052642;28;20132;-58
2021/04/20 02:23:27;;;;;;;26.30;16.38;;;5.10;99.90;;;;;;5052194;28;20047;-58
2021/04/20 02:25:53;;;;;;;33.88;16.83;;;5.10;99.90;;;;;;5052206;28;20077;-56
2021/04/20 02:28:20;;;;;;;27.55;16.33;;;5.00;99.90;;;;;;5052695;28;20064;-59
2021/04/20 02:30:46;;;;;;;28.25;16.75;;;5.00;99.90;;;;;;5052280;28;20025;-54
2021/04/20 02:33:13;;;;;;;28.65;16.25;;;4.90;99.90;;;;;;5051530;28;20024;-57
2021/04/20 02:35:38;;;;;;;27.52;16.40;;;4.90;99.90;;;;;;5052760;28;20040;-56
2021/04/20 02:38:06;;;;;;;26.65;17.17;;;4.80;99.90;;;;;;5052428;28;20041;-57
2021/04/20 02:40:34;;;;;;;24.52;16.50;;;4.80;99.90;;;;;;5051222;28;20100;-61
2021/04/20 02:43:00;;;;;;;27.42;17.25;;;4.80;99.90;;;;;;5052037;28;20025;-56
2021/04/20 02:45:27;;;;;;;34.45;19.00;;;4.70;99.90;;;;;;5051536;28;20025;-57
2021/04/20 02:47:55;;;;;;;28.30;17.40;;;4.70;99.90;;;;;;5051451;28;20032;-60
2021/04/20 02:50:28;;;;;;;25.90;16.23;;;4.70;99.90;;;;;;5049595;28;20100;-59
2021/04/20 02:52:56;;;;;;;29.10;16.52;;;4.70;99.90;;;;;;5051809;28;20060;-55
2021/04/20 02:55:23;;;;;;;26.92;15.93;;;4.60;99.90;;;;;;5050116;28;20451;-55
2021/04/20 02:57:54;;;;;;;27.95;16.90;;;4.50;99.90;;;;;;5051427;28;20029;-56
2021/04/20 03:00:22;;;;;;;27.40;16.30;;;4.40;99.90;;;;;;5051416;28;20037;-59
2021/04/20 03:02:53;;;;;;;27.00;15.70;;;4.40;99.90;;;;;;5051138;28;20025;-55
2021/04/20 03:05:20;;;;;;;29.33;15.95;;;4.30;99.90;;;;;;5050401;28;20033;-57
2021/04/20 03:07:48;;;;;;;26.20;16.55;;;4.20;99.90;;;;;;5052101;28;20041;-57
2021/04/20 03:10:15;;;;;;;28.45;16.00;;;4.20;99.90;;;;;;5051034;28;20023;-56
2021/04/20 03:12:42;;;;;;;31.42;16.40;;;4.10;99.90;;;;;;5052105;28;20040;-55
2021/04/20 03:15:11;;;;;;;26.50;15.75;;;4.10;99.90;;;;;;5051280;28;20462;-58
2021/04/20 03:17:39;;;;;;;31.88;16.83;;;4.20;99.90;;;;;;5051231;28;20037;-54
2021/04/20 03:20:07;;;;;;;27.90;16.83;;;4.10;99.90;;;;;;5043036;28;20116;-56
2021/04/20 03:22:33;;;;;;;27.10;16.75;;;4.00;99.90;;;;;;5046438;28;20491;-57
2021/04/20 03:25:06;;;;;;;28.20;15.45;;;4.00;99.90;;;;;;5049499;28;20060;-58
2021/04/20 03:27:33;;;;;;;29.40;15.77;;;3.90;99.90;;;;;;5048388;28;20033;-58
2021/04/20 03:29:58;;;;;;;28.88;16.00;;;3.90;99.90;;;;;;5051529;28;20025;-57
2021/04/20 03:32:26;;;;;;;29.05;16.27;;;3.90;99.90;;;;;;5050971;28;20036;-60
2021/04/20 03:35:11;;;;;;;26.60;15.73;;;3.90;99.90;;;;;;5051298;28;20045;-55
2021/04/20 03:37:45;;;;;;;;;;;3.80;99.90;;;;;;5045071;28;20147;-60
2021/04/20 03:40:13;;;;;;;28.10;15.25;;;3.80;99.90;;;;;;5050646;28;19916;-57
2021/04/20 03:42:49;;;;;;;27.42;15.73;;;3.70;99.90;;;;;;5050800;28;20383;-58
2021/04/20 03:45:23;;;;;;;29.70;16.30;;;3.60;99.90;;;;;;5050773;28;20025;-58
2021/04/20 03:47:59;;;;;;;24.75;15.23;;;3.60;99.90;;;;;;5051240;28;20437;-58
2021/04/20 03:50:31;;;;;;;25.67;15.75;;;3.50;99.90;;;;;;5049815;28;20047;-55
2021/04/20 03:53:02;;;;;;;26.23;15.40;;;3.50;99.90;;;;;;5050945;28;20036;-57
2021/04/20 03:55:30;;;;;;;31.73;16.88;;;3.50;99.90;;;;;;5049455;28;20028;-56
2021/04/20 03:57:57;;;;;;;32.97;16.83;;;3.50;99.90;;;;;;5049863;28;20033;-55
2021/04/20 04:00:24;;;;;;;29.75;16.67;;;3.50;99.90;;;;;;5050721;28;20048;-55
2021/04/20 04:02:53;;;;;;;28.67;16.63;;;3.50;99.90;;;;;;5050379;28;20079;-57
2021/04/20 04:05:25;;;;;;;28.17;16.88;;;3.40;99.90;;;;;;5050959;28;20035;-58
2021/04/20 04:07:54;;;;;;;26.60;16.00;;;3.40;99.90;;;;;;5050562;28;20471;-56
2021/04/20 04:10:22;;;;;;;35.08;17.98;;;3.40;99.90;;;;;;5050439;28;20551;-57
2021/04/20 04:12:54;;;;;;;39.28;18.45;;;3.40;99.90;;;;;;5050739;28;20042;-58
2021/04/20 04:15:22;;;;;;;31.13;18.05;;;3.40;99.90;;;;;;5050034;28;20029;-60
2021/04/20 04:17:49;;;;;;;36.88;19.98;;;3.40;99.90;;;;;;5050731;28;20029;-56
2021/04/20 04:20:16;;;;;;;32.45;17.80;;;3.40;99.90;;;;;;5050613;28;20028;-55
2021/04/20 04:23:02;;;;;;;33.90;16.77;;;3.50;99.90;;;;;;5050264;28;20021;-58
2021/04/20 04:25:37;;;;;;;27.05;16.58;;;3.50;99.90;;;;;;5049639;28;20056;-60
2021/04/20 04:28:05;;;;;;;26.90;15.43;;;3.50;99.90;;;;;;5044871;28;20029;-56
2021/04/20 04:30:32;;;;;;;34.63;16.83;;;3.50;99.90;;;;;;5049776;28;20498;-57
2021/04/20 04:32:59;;;;;;;33.13;17.00;;;3.40;99.90;;;;;;5050277;28;20025;-56
2021/04/20 04:35:27;;;;;;;28.88;16.33;;;3.40;99.90;;;;;;5052042;28;21615;-58
2021/04/20 04:37:53;;;;;;;30.55;15.88;;;3.30;99.90;;;;;;5054107;28;20045;-59
2021/04/20 04:40:20;;;;;;;28.88;15.90;;;3.30;99.90;;;;;;5053703;28;20526;-58
2021/04/20 04:42:46;;;;;;;35.58;17.77;;;3.20;99.90;;;;;;5054264;28;20478;-56
2021/04/20 04:45:13;;;;;;;30.02;16.55;;;3.20;99.90;;;;;;5054445;28;20079;-54
2021/04/20 04:47:39;;;;;;;31.42;16.40;;;3.10;99.90;;;;;;5053728;28;20056;-58
2021/04/20 04:50:07;;;;;;;27.13;15.90;;;3.00;99.90;;;;;;5054795;28;20467;-57
2021/04/20 04:52:33;;;;;;;28.30;15.90;;;2.90;99.90;;;;;;5053745;28;20036;-61
2021/04/20 04:55:00;;;;;;;44.70;17.65;;;2.90;99.90;;;;;;5053895;28;20441;-58
2021/04/20 04:57:27;;;;;;;41.50;16.17;;;2.90;99.90;;;;;;5052993;28;20387;-56
2021/04/20 04:59:59;;;;;;;38.78;16.23;;;2.90;99.90;;;;;;5054035;28;20043;-59
2021/04/20 05:02:26;;;;;;;57.65;17.85;;;2.90;99.90;;;;;;5054320;28;20025;-56
2021/04/20 05:04:55;;;;;;;39.08;16.27;;;2.80;99.90;;;;;;5054206;28;20120;-57
2021/04/20 05:07:23;;;;;;;30.15;16.40;;;2.80;99.90;;;;;;5053411;28;20479;-56
2021/04/20 05:09:50;;;;;;;28.80;16.25;;;2.80;99.90;;;;;;5053851;28;20033;-59
2021/04/20 05:12:20;;;;;;;28.75;16.58;;;2.80;99.90;;;;;;5053805;28;20237;-57
2021/04/20 05:14:47;;;;;;;39.50;17.45;;;2.70;99.90;;;;;;5053687;28;20087;-58
2021/04/20 05:17:13;;;;;;;29.73;16.45;;;2.70;99.90;;;;;;5054027;28;20033;-58
2021/04/20 05:19:41;;;;;;;36.28;17.38;;;2.70;99.90;;;;;;5054039;28;20449;-57
2021/04/20 05:22:11;;;;;;;35.25;16.65;;;2.70;99.90;;;;;;5042820;28;20543;-54
2021/04/20 05:24:38;;;;;;;35.47;16.20;;;2.70;99.90;;;;;;5053353;28;20491;-61
2021/04/20 05:27:06;;;;;;;34.42;16.77;;;2.80;99.90;;;;;;5052860;28;20063;-58
2021/04/20 05:29:33;;;;;;;41.78;17.50;;;2.90;99.90;;;;;;5053843;28;20069;-58
2021/04/20 05:31:58;;;;;;;37.88;17.52;;;2.90;99.90;;;;;;5052360;28;20131;-59
2021/04/20 05:34:24;;;;;;;34.90;16.90;;;2.90;99.90;;;;;;5053473;28;20033;-58
2021/04/20 05:36:51;;;;;;;38.85;17.15;;;3.00;99.90;;;;;;5051960;28;20391;-55
2021/04/20 05:39:17;;;;;;;36.08;17.90;;;3.10;99.90;;;;;;5053258;28;20036;-53
2021/04/20 05:41:44;;;;;;;41.30;18.83;;;3.00;99.90;;;;;;5052495;28;20037;-61
2021/04/20 05:44:12;;;;;;;42.58;19.50;;;3.20;99.90;;;;;;5053423;28;20021;-57
2021/04/20 05:46:40;;;;;;;47.85;18.15;;;3.20;99.90;;;;;;5047254;28;20033;-58
2021/04/20 05:49:07;;;;;;;35.47;18.40;;;3.10;99.90;;;;;;5052920;28;20049;-56
2021/04/20 05:51:34;;;;;;;35.08;18.08;;;3.10;99.90;;;;;;5052601;28;20459;-61
2021/04/20 05:53:59;;;;;;;38.10;18.00;;;3.20;99.90;;;;;;5053289;28;20028;-59
2021/04/20 05:56:25;;;;;;;39.47;18.23;;;3.30;99.90;;;;;;5052519;28;20063;-59
2021/04/20 05:58:56;;;;;;;39.65;17.50;;;3.40;99.90;;;;;;5052984;28;20033;-56
2021/04/20 06:01:24;;;;;;;38.85;18.52;;;3.30;99.90;;;;;;5053232;28;20379;-54
2021/04/20 06:03:51;;;;;;;41.95;19.08;;;3.40;99.90;;;;;;5052974;28;20098;-54
2021/04/20 06:06:19;;;;;;;34.90;19.25;;;3.50;99.90;;;;;;5052819;28;20061;-57
2021/04/20 06:08:48;;;;;;;40.10;19.30;;;3.70;99.90;;;;;;5052358;28;20036;-55
2021/04/20 06:11:15;;;;;;;61.58;20.75;;;3.80;99.90;;;;;;5052230;28;20471;-56
2021/04/20 06:13:41;;;;;;;50.40;18.48;;;4.00;99.90;;;;;;5051007;28;20029;-59
2021/04/20 06:16:07;;;;;;;48.05;19.52;;;4.00;99.90;;;;;;5052699;28;20386;-58
2021/04/20 06:18:36;;;;;;;44.92;20.67;;;4.20;99.90;;;;;;5050174;28;20033;-57
2021/04/20 06:21:02;;;;;;;57.55;20.55;;;4.30;99.90;;;;;;5052053;28;20031;-58
2021/04/20 06:23:29;;;;;;;46.75;19.58;;;4.40;99.90;;;;;;5052484;28;20104;-55
2021/04/20 06:26:01;;;;;;;50.00;20.95;;;4.50;99.90;;;;;;5052041;28;20392;-56
2021/04/20 06:28:27;;;;;;;49.78;20.48;;;4.60;99.90;;;;;;5052027;28;20091;-57
2021/04/20 06:30:57;;;;;;;46.63;19.52;;;4.80;99.90;;;;;;5052520;28;20036;-58
2021/04/20 06:33:26;;;;;;;51.60;20.58;;;4.80;99.90;;;;;;5051115;28;20360;-57
2021/04/20 06:35:53;;;;;;;42.75;21.30;;;4.90;99.90;;;;;;5051312;28;20064;-54
2021/04/20 06:38:19;;;;;;;52.30;22.15;;;5.00;99.90;;;;;;5052429;28;20044;-58
2021/04/20 06:40:48;;;;;;;56.20;22.58;;;5.20;99.90;;;;;;5047640;28;20044;-59
2021/04/20 06:43:15;;;;;;;57.25;21.90;;;5.30;99.90;;;;;;5050153;28;20417;-57
2021/04/20 06:45:47;;;;;;;47.45;21.73;;;5.50;99.90;;;;;;5051213;28;20064;-57
2021/04/20 06:48:38;;;;;;;47.10;21.55;;;5.60;99.90;;;;;;5050294;28;20025;-58
2021/04/20 06:51:09;;;;;;;48.83;23.35;;;5.70;99.90;;;;;;5048765;28;20547;-57
2021/04/20 06:53:41;;;;;;;59.05;23.65;;;5.90;99.90;;;;;;5051309;28;20048;-58
2021/04/20 06:56:20;;;;;;;55.90;24.77;;;6.10;99.90;;;;;;5050896;28;20043;-58
2021/04/20 06:59:11;;;;;;;57.95;24.13;;;6.20;99.90;;;;;;5048263;28;20033;-56
2021/04/20 07:01:52;;;;;;;63.42;23.80;;;6.60;99.90;;;;;;5044310;28;20036;-57
2021/04/20 07:04:23;;;;;;;51.47;23.88;;;6.80;99.90;;;;;;5048393;28;20086;-57
2021/04/20 07:07:06;;;;;;;54.88;23.20;;;7.00;99.90;;;;;;5039582;28;20402;-60
2021/04/20 07:09:36;;;;;;;50.15;23.10;;;7.20;99.90;;;;;;5046035;28;20021;-59
2021/04/20 07:12:02;;;;;;;54.83;24.02;;;7.40;99.90;;;;;;5050941;28;20108;-57
2021/04/20 07:14:35;;;;;;;54.28;20.95;;;7.60;99.90;;;;;;5050493;28;20055;-58
2021/04/20 07:17:29;;;;;;;40.67;21.45;;;7.80;99.90;;;;;;5057755;28;20032;-58
2021/04/20 07:20:13;;;;;;;75.93;24.17;;;8.00;99.90;;;;;;5039361;28;20037;-55
2021/04/20 07:23:15;;;;;;;51.75;23.48;;;8.30;99.90;;;;;;5044468;28;20025;-58
2021/04/20 07:25:59;;;;;;;54.50;20.92;;;8.50;99.90;;;;;;5041471;28;20348;-56
2021/04/20 07:28:27;;;;;;;70.20;27.55;;;8.70;99.90;;;;;;5045348;28;20028;-58
2021/04/20 07:31:02;;;;;;;51.45;19.85;;;9.10;99.90;;;;;;5040847;28;20052;-58
2021/04/20 07:33:34;;;;;;;35.47;16.33;;;9.50;99.90;;;;;;5037382;28;20037;-60
2021/04/20 07:36:29;;;;;;;38.83;15.32;;;10.10;99.90;;;;;;5039507;28;20044;-60
2021/04/20 07:39:10;;;;;;;40.05;15.52;;;10.60;99.90;;;;;;5040498;28;20548;-60
2021/04/20 07:41:44;;;;;;;44.53;17.77;;;11.00;99.90;;;;;;5039485;28;20034;-58
2021/04/20 07:44:31;;;;;;;38.00;16.58;;;11.50;99.90;;;;;;5040549;28;20104;-59
2021/04/20 07:47:01;;;;;;;48.00;18.88;;;11.60;99.90;;;;;;5045896;28;20367;-57
2021/04/20 07:49:45;;;;;;;43.67;17.30;;;11.90;99.90;;;;;;5047830;28;20044;-60
2021/04/20 07:52:41;;;;;;;37.97;15.98;;;12.30;99.90;;;;;;5047739;28;20091;-57
2021/04/20 07:55:24;;;;;;;40.55;16.15;;;12.60;99.90;;;;;;5050100;28;20089;-57
2021/04/20 07:58:02;;;;;;;42.67;15.50;;;12.80;99.90;;;;;;5046239;28;20033;-59
2021/04/20 08:00:34;;;;;;;37.22;16.02;;;13.10;99.90;;;;;;5044539;28;20525;-57
2021/04/20 08:03:33;;;;;;;41.88;15.40;;;13.20;99.90;;;;;;5050656;28;20056;-57
2021/04/20 08:06:02;;;;;;;38.53;15.13;;;13.40;99.90;;;;;;5044321;28;20033;-58
2021/04/20 08:08:33;;;;;;;34.75;14.13;;;13.40;99.90;;;;;;5048210;28;20253;-57
2021/04/20 08:11:05;;;;;;;36.28;14.00;;;13.60;99.90;;;;;;5049117;28;20032;-56
2021/04/20 08:14:09;;;;;;;39.33;13.90;;;13.90;99.90;;;;;;5050080;28;20409;-59
2021/04/20 08:16:39;;;;;;;32.15;13.57;;;14.10;99.90;;;;;;5047767;28;20119;-59
2021/04/20 08:19:07;;;;;;;23.30;10.77;;;14.50;99.90;;;;;;5050354;28;20032;-59
2021/04/20 08:21:37;;;;;;;25.10;11.10;;;14.50;99.90;;;;;;5049651;28;20112;-58
2021/04/20 08:24:07;;;;;;;27.02;10.90;;;14.80;99.90;;;;;;5046684;28;20033;-57
2021/04/20 08:26:39;;;;;;;31.35;11.15;;;15.10;99.90;;;;;;5049566;28;20033;-58
2021/04/20 08:29:10;;;;;;;22.67;11.35;;;15.40;99.90;;;;;;5049824;28;20084;-57
2021/04/20 08:31:47;;;;;;;23.70;11.13;;;15.40;99.90;;;;;;5050489;28;20056;-58
2021/04/20 08:34:27;;;;;;;27.55;11.30;;;15.20;99.90;;;;;;5048719;28;20028;-55
2021/04/20 08:37:04;;;;;;;27.75;10.90;;;15.30;99.90;;;;;;5048915;28;20037;-57
2021/04/20 08:39:40;;;;;;;25.15;11.48;;;15.20;99.90;;;;;;5040440;28;20045;-57
2021/04/20 08:42:16;;;;;;;44.78;12.95;;;15.60;99.90;;;;;;5049246;28;20467;-58
2021/04/20 08:45:08;;;;;;;41.67;11.10;;;15.80;99.90;;;;;;5049327;28;20094;-58
2021/04/20 08:48:04;;;;;;;29.13;11.20;;;16.10;99.90;;;;;;5047135;28;20020;-58
2021/04/20 08:50:37;;;;;;;19.27;11.38;;;16.20;99.90;;;;;;5048459;28;20527;-59
2021/04/20 08:53:21;;;;;;;25.00;11.50;;;16.30;99.90;;;;;;5047682;28;20051;-59
2021/04/20 08:56:01;;;;;;;21.15;11.98;;;16.10;99.90;;;;;;5048949;28;20032;-57
2021/04/20 08:58:47;;;;;;;20.52;13.52;;;16.10;99.90;;;;;;5056049;28;20075;-57
2021/04/20 09:01:51;;;;;;;25.75;13.85;;;16.30;99.90;;;;;;5047110;28;20483;-57
2021/04/20 09:04:50;;;;;;;23.10;15.18;;;16.50;99.90;;;;;;5036906;28;20043;-60
2021/04/20 09:07:46;;;;;;;30.17;15.65;;;16.60;99.90;;;;;;5042516;28;20040;-59
2021/04/20 09:10:23;;;;;;;24.65;17.20;;;16.60;99.90;;;;;;5048197;28;20036;-59
2021/04/20 09:12:58;;;;;;;33.15;17.52;;;16.60;99.90;;;;;;5047336;28;20034;-57
2021/04/20 09:15:26;;;;;;;28.02;18.13;;;16.40;99.90;;;;;;5048322;28;20546;-56
2021/04/20 09:17:58;;;;;;;38.47;21.02;;;16.30;99.90;;;;;;5045446;28;20446;-58
2021/04/20 09:20:44;;;;;;;47.80;23.40;;;16.40;99.90;;;;;;5045959;28;20041;-59
2021/04/20 09:23:23;;;;;;;41.03;23.52;;;16.60;99.90;;;;;;5052119;28;20037;-59
2021/04/20 09:26:19;;;;;;;33.42;24.15;;;16.70;99.90;;;;;;5053392;28;20506;-57
2021/04/20 09:28:59;;;;;;;35.72;24.85;;;17.00;99.90;;;;;;5050994;28;20033;-59
2021/04/20 09:31:30;;;;;;;37.38;25.75;;;17.10;99.90;;;;;;5052465;28;20112;-57
2021/04/20 09:33:56;;;;;;;37.22;25.25;;;17.20;99.90;;;;;;5051295;28;20032;-59
2021/04/20 09:36:23;;;;;;;37.10;26.88;;;17.30;99.90;;;;;;5052186;28;20033;-58
2021/04/20 09:38:50;;;;;;;49.33;29.00;;;17.40;99.90;;;;;;5052768;28;20037;-61
2021/04/20 09:41:22;;;;;;;45.90;31.00;;;17.50;99.90;;;;;;5052479;28;20032;-58
2021/04/20 09:44:21;;;;;;;41.45;29.77;;;17.70;99.90;;;;;;5049976;28;20053;-56
2021/04/20 09:47:02;;;;;;;43.80;31.83;;;17.70;99.90;;;;;;5052579;28;20044;-59
2021/04/20 09:49:52;;;;;;;57.22;32.55;;;17.60;99.90;;;;;;5048942;28;20043;-59
2021/04/20 09:52:21;;;;;;;42.92;32.05;;;17.70;99.90;;;;;;5052193;28;20470;-57
2021/04/20 09:54:53;;;;;;;40.22;30.80;;;17.80;99.90;;;;;;5052576;28;20111;-61
2021/04/20 09:57:27;;;;;;;45.40;31.45;;;17.60;99.90;;;;;;5052374;28;20441;-60
2021/04/20 09:59:59;;;;;;;42.53;28.23;;;17.40;99.90;;;;;;5052410;28;20049;-58
2021/04/20 10:03:02;;;;;;;43.67;30.77;;;17.50;99.90;;;;;;5052625;28;20028;-59
2021/04/20 10:05:53;;;;;;;42.28;31.75;;;17.30;99.90;;;;;;5052345;28;20033;-56
2021/04/20 10:08:56;;;;;;;41.00;29.10;;;16.60;99.90;;;;;;5052372;28;20071;-58
2021/04/20 10:11:45;;;;;;;46.53;31.60;;;16.20;99.90;;;;;;5048178;28;20040;-57
2021/04/20 10:14:59;;;;;;;41.58;29.98;;;16.20;99.90;;;;;;5052429;28;20112;-59
2021/04/20 10:17:37;;;;;;;45.05;30.10;;;16.00;99.90;;;;;;5040638;28;20037;-58
2021/04/20 10:20:08;;;;;;;42.72;31.13;;;15.80;99.90;;;;;;5049316;28;20028;-60
2021/04/20 10:22:49;;;;;;;43.70;30.13;;;15.90;99.90;;;;;;5052783;28;20036;-57
2021/04/20 10:25:35;;;;;;;43.55;30.38;;;16.20;99.90;;;;;;5052149;28;20045;-57
2021/04/20 10:28:31;;;;;;;44.92;28.65;;;16.20;99.90;;;;;;5052511;28;20044;-56
2021/04/20 10:31:10;;;;;;;47.83;27.23;;;16.20;99.90;;;;;;5050247;28;20072;-59
2021/04/20 10:33:39;;;;;;;38.78;26.33;;;16.00;99.90;;;;;;5052473;28;20030;-56
2021/04/20 10:36:06;;;;;;;46.05;29.50;;;16.00;99.90;;;;;;5043684;28;20107;-56
2021/04/20 10:38:34;;;;;;;42.35;28.35;;;15.80;99.90;;;;;;5047807;28;20372;-56
2021/04/20 10:41:02;;;;;;;55.40;30.83;;;15.80;99.90;;;;;;5052798;28;20086;-58
2021/04/20 10:43:31;;;;;;;43.05;28.92;;;15.80;99.90;;;;;;5051993;28;20029;-55
2021/04/20 10:46:08;;;;;;;49.88;32.17;;;15.60;99.90;;;;;;5052205;28;20132;-56
2021/04/20 10:48:35;;;;;;;41.53;29.52;;;15.70;99.90;;;;;;5052410;28;20124;-61
2021/04/20 10:51:03;;;;;;;46.67;28.27;;;16.10;99.90;;;;;;5052350;28;20079;-58
2021/04/20 10:53:35;;;;;;;39.63;27.65;;;16.10;99.90;;;;;;5052518;28;20059;-55
2021/04/20 10:56:04;;;;;;;41.75;27.75;;;16.40;99.90;;;;;;5051696;28;20025;-58
2021/04/20 10:58:31;;;;;;;45.47;29.30;;;16.50;99.90;;;;;;5051745;28;20040;-57
2021/04/20 11:00:57;;;;;;;35.42;23.52;;;16.40;99.90;;;;;;5052333;28;20025;-57
2021/04/20 11:03:29;;;;;;;39.47;24.73;;;16.40;99.90;;;;;;5052095;28;20025;-57
2021/04/20 11:05:55;;;;;;;36.50;23.38;;;16.40;99.90;;;;;;5051425;28;20020;-59
2021/04/20 11:08:35;;;;;;;32.80;22.95;;;16.60;99.90;;;;;;5045893;28;20510;-58
2021/04/20 11:11:02;;;;;;;37.50;23.42;;;16.80;99.90;;;;;;5052404;28;20090;-57
2021/04/20 11:13:38;;;;;;;32.72;22.88;;;17.10;99.90;;;;;;5051315;28;20029;-58
2021/04/20 11:16:11;;;;;;;32.70;21.73;;;17.30;99.90;;;;;;5051904;28;20037;-57
2021/04/20 11:18:39;;;;;;;36.20;22.98;;;17.30;99.90;;;;;;5051477;28;20033;-60
2021/04/20 11:21:14;;;;;;;30.58;21.23;;;17.30;99.90;;;;;;5051912;28;20041;-56
2021/04/20 11:23:53;;;;;;;28.92;21.55;;;17.40;99.90;;;;;;5051681;28;20021;-55
2021/04/20 11:26:26;;;;;;;30.50;21.08;;;17.50;99.90;;;;;;5051822;28;20045;-57
2021/04/20 11:28:59;;;;;;;37.63;21.13;;;17.60;99.90;;;;;;5051429;28;20471;-58
2021/04/20 11:31:55;;;;;;;35.58;20.70;;;17.80;99.90;;;;;;5051534;28;20032;-59
2021/04/20 11:34:32;;;;;;;28.85;21.08;;;18.10;99.90;;;;;;5047820;28;20049;-57
2021/04/20 11:37:10;;;;;;;30.75;19.60;;;18.00;99.90;;;;;;5051598;28;20498;-57
2021/04/20 11:39:37;;;;;;;30.75;20.98;;;18.20;99.90;;;;;;5047084;28;20040;-58
2021/04/20 11:42:10;;;;;;;29.77;21.20;;;18.40;99.90;;;;;;5050040;28;20418;-58
2021/04/20 11:44:40;;;;;;;29.08;20.75;;;18.10;99.90;;;;;;5047058;28;20035;-58
2021/04/20 11:47:08;;;;;;;30.40;20.58;;;17.90;99.90;;;;;;5050646;28;20108;-59
2021/04/20 11:49:35;;;;;;;30.15;20.55;;;17.60;99.90;;;;;;5049645;28;20021;-55
2021/04/20 11:52:02;;;;;;;30.70;19.70;;;17.50;99.90;;;;;;5047016;28;20025;-56
2021/04/20 11:54:34;;;;;;;35.92;21.65;;;17.20;99.90;;;;;;5046064;28;20357;-60
2021/04/20 11:57:03;;;;;;;31.45;21.67;;;17.10;99.90;;;;;;5048799;28;20090;-60
2021/04/20 11:59:30;;;;;;;41.28;21.52;;;16.70;99.90;;;;;;5050001;28;20032;-57
2021/04/20 12:01:57;;;;;;;34.45;20.85;;;16.50;99.90;;;;;;5051094;28;20052;-57
2021/04/20 12:04:27;;;;;;;33.58;21.60;;;16.60;99.90;;;;;;5050693;28;20074;-57
2021/04/20 12:06:56;;;;;;;32.38;21.83;;;16.50;99.90;;;;;;5050618;28;20108;-57
2021/04/20 12:09:38;;;;;;;31.95;20.67;;;16.20;99.90;;;;;;5049326;28;20398;-59
2021/04/20 12:12:06;;;;;;;31.45;22.38;;;16.10;99.90;;;;;;5049768;28;20040;-59
2021/04/20 12:14:39;;;;;;;36.03;22.40;;;16.20;99.90;;;;;;5050673;28;20040;-58
2021/04/20 12:17:05;;;;;;;30.85;21.88;;;16.20;99.90;;;;;;5050716;28;20075;-57
2021/04/20 12:19:33;;;;;;;36.90;22.25;;;16.20;99.90;;;;;;5048738;28;20398;-57
2021/04/20 12:22:02;;;;;;;35.10;23.23;;;16.20;99.90;;;;;;5048674;28;20029;-58
2021/04/20 12:24:29;;;;;;;32.10;21.20;;;16.40;99.90;;;;;;5048975;28;20044;-59
2021/04/20 12:26:58;;;;;;;32.58;20.92;;;16.50;99.90;;;;;;5049142;28;20060;-58
2021/04/20 12:29:27;;;;;;;30.35;20.50;;;16.60;99.90;;;;;;5044755;28;20048;-57
2021/04/20 12:31:53;;;;;;;29.13;20.98;;;16.70;99.90;;;;;;5049822;28;20502;-61
2021/04/20 12:34:29;;;;;;;45.28;21.83;;;16.70;99.90;;;;;;5050300;28;20025;-58
2021/04/20 12:37:00;;;;;;;32.67;20.25;;;16.80;99.90;;;;;;5050201;28;20098;-57
2021/04/20 12:39:29;;;;;;;26.15;20.05;;;16.90;99.90;;;;;;5049373;28;20033;-57
2021/04/20 12:41:58;;;;;;;32.47;20.63;;;16.90;99.90;;;;;;5049437;28;20051;-59
2021/04/20 12:44:35;;;;;;;33.83;22.10;;;17.00;99.90;;;;;;5050029;28;20048;-57
2021/04/20 12:47:05;;;;;;;29.75;21.75;;;16.90;99.90;;;;;;5049905;28;20091;-57
2021/04/20 12:49:33;;;;;;;37.38;21.92;;;16.80;99.90;;;;;;5047718;28;20041;-58
2021/04/20 12:52:04;;;;;;;35.25;21.98;;;16.90;99.90;;;;;;5050289;28;20029;-59
2021/04/20 12:54:36;;;;;;;33.00;21.40;;;17.10;99.90;;;;;;5049637;28;20033;-60
2021/04/20 12:57:03;;;;;;;29.40;21.55;;;17.10;99.90;;;;;;5050082;28;20466;-59